sensor_id;sensor_type;location;lat;lon;timestamp;P1;durP1;ratioP1;P2;durP2;ratioP2
57551;SDS011;43379;48.160;14.036;2023-03-14T00:01:30;8.87;;;8.03;;
57551;SDS011;43379;48.160;14.036;2023-03-14T00:03:56;10.90;;;9.90;;
57551;SDS011;43379;48.160;14.036;2023-03-14T00:06:22;12.60;;;11.40;;
57551;SDS011;43379;48.160;14.036;2023-03-14T00:08:48;13.17;;;11.40;;
57551;SDS011;43379;48.160;14.036;2023-03-14T00:11:15;12.53;;;11.30;;
57551;SDS011;43379;48.160;14.036;2023-03-14T00:13:47;13.43;;;12.10;;
57551;SDS011;43379;48.160;14.036;2023-03-14T00:16:16;12.80;;;11.50;;
57551;SDS011;43379;48.160;14.036;2023-03-14T00:18:42;13.27;;;10.77;;
57551;SDS011;43379;48.160;14.036;2023-03-14T00:21:09;11.93;;;10.90;;
57551;SDS011;43379;48.160;14.036;2023-03-14T00:23:36;12.07;;;10.93;;
57551;SDS011;43379;48.160;14.036;2023-03-14T00:26:13;14.97;;;11.60;;
57551;SDS011;43379;48.160;14.036;2023-03-14T00:28:40;12.60;;;10.90;;
57551;SDS011;43379;48.160;14.036;2023-03-14T00:31:07;12.77;;;11.33;;
57551;SDS011;43379;48.160;14.036;2023-03-14T00:33:34;12.50;;;11.20;;
57551;SDS011;43379;48.160;14.036;2023-03-14T00:36:07;14.03;;;12.47;;
57551;SDS011;43379;48.160;14.036;2023-03-14T00:38:35;14.20;;;11.77;;
57551;SDS011;43379;48.160;14.036;2023-03-14T00:41:03;11.87;;;10.87;;
57551;SDS011;43379;48.160;14.036;2023-03-14T00:43:34;11.43;;;10.43;;
57551;SDS011;43379;48.160;14.036;2023-03-14T00:45:59;14.80;;;12.30;;
57551;SDS011;43379;48.160;14.036;2023-03-14T00:48:25;16.50;;;11.13;;
57551;SDS011;43379;48.160;14.036;2023-03-14T00:50:51;11.87;;;10.67;;
57551;SDS011;43379;48.160;14.036;2023-03-14T00:53:17;13.63;;;11.20;;
57551;SDS011;43379;48.160;14.036;2023-03-14T00:55:43;12.60;;;11.30;;
57551;SDS011;43379;48.160;14.036;2023-03-14T00:58:10;12.17;;;11.00;;
57551;SDS011;43379;48.160;14.036;2023-03-14T01:00:37;10.20;;;9.27;;
57551;SDS011;43379;48.160;14.036;2023-03-14T01:03:03;12.77;;;10.20;;
57551;SDS011;43379;48.160;14.036;2023-03-14T01:05:29;10.80;;;9.43;;
57551;SDS011;43379;48.160;14.036;2023-03-14T01:07:54;12.63;;;8.80;;
57551;SDS011;43379;48.160;14.036;2023-03-14T01:10:20;9.30;;;8.20;;
57551;SDS011;43379;48.160;14.036;2023-03-14T01:12:46;9.97;;;8.53;;
57551;SDS011;43379;48.160;14.036;2023-03-14T01:15:12;9.63;;;8.77;;
57551;SDS011;43379;48.160;14.036;2023-03-14T01:17:37;9.43;;;8.53;;
57551;SDS011;43379;48.160;14.036;2023-03-14T01:20:04;9.10;;;8.17;;
57551;SDS011;43379;48.160;14.036;2023-03-14T01:22:34;8.17;;;7.30;;
57551;SDS011;43379;48.160;14.036;2023-03-14T01:25:05;8.43;;;7.50;;
57551;SDS011;43379;48.160;14.036;2023-03-14T01:27:35;8.10;;;7.30;;
57551;SDS011;43379;48.160;14.036;2023-03-14T01:30:01;7.40;;;6.80;;
57551;SDS011;43379;48.160;14.036;2023-03-14T01:32:28;6.57;;;6.07;;
57551;SDS011;43379;48.160;14.036;2023-03-14T01:34:54;8.53;;;6.70;;
57551;SDS011;43379;48.160;14.036;2023-03-14T01:37:19;7.50;;;6.80;;
57551;SDS011;43379;48.160;14.036;2023-03-14T01:39:46;7.20;;;5.93;;
57551;SDS011;43379;48.160;14.036;2023-03-14T01:42:12;6.93;;;6.30;;
57551;SDS011;43379;48.160;14.036;2023-03-14T01:44:54;6.90;;;5.87;;
57551;SDS011;43379;48.160;14.036;2023-03-14T01:47:21;6.53;;;5.60;;
57551;SDS011;43379;48.160;14.036;2023-03-14T01:49:49;6.00;;;5.50;;
57551;SDS011;43379;48.160;14.036;2023-03-14T01:52:31;8.27;;;6.40;;
57551;SDS011;43379;48.160;14.036;2023-03-14T01:55:06;6.27;;;5.67;;
57551;SDS011;43379;48.160;14.036;2023-03-14T01:57:50;7.43;;;6.73;;
57551;SDS011;43379;48.160;14.036;2023-03-14T02:00:22;6.40;;;5.80;;
57551;SDS011;43379;48.160;14.036;2023-03-14T02:02:49;6.63;;;5.53;;
57551;SDS011;43379;48.160;14.036;2023-03-14T02:05:22;6.77;;;5.77;;
57551;SDS011;43379;48.160;14.036;2023-03-14T02:07:55;7.00;;;6.30;;
57551;SDS011;43379;48.160;14.036;2023-03-14T02:10:24;6.40;;;5.80;;
57551;SDS011;43379;48.160;14.036;2023-03-14T02:12:53;5.53;;;5.13;;
57551;SDS011;43379;48.160;14.036;2023-03-14T02:15:21;5.70;;;5.00;;
57551;SDS011;43379;48.160;14.036;2023-03-14T02:17:48;5.57;;;5.07;;
57551;SDS011;43379;48.160;14.036;2023-03-14T02:20:18;5.77;;;5.23;;
57551;SDS011;43379;48.160;14.036;2023-03-14T02:23:03;8.07;;;5.87;;
57551;SDS011;43379;48.160;14.036;2023-03-14T02:26:31;6.23;;;5.73;;
57551;SDS011;43379;48.160;14.036;2023-03-14T02:28:33;5.20;;;4.80;;
57551;SDS011;43379;48.160;14.036;2023-03-14T02:30:59;5.33;;;4.83;;
57551;SDS011;43379;48.160;14.036;2023-03-14T02:33:25;5.73;;;5.10;;
57551;SDS011;43379;48.160;14.036;2023-03-14T02:38:51;4.97;;;4.47;;
57551;SDS011;43379;48.160;14.036;2023-03-14T02:41:17;5.57;;;4.20;;
57551;SDS011;43379;48.160;14.036;2023-03-14T02:43:43;5.00;;;4.60;;
57551;SDS011;43379;48.160;14.036;2023-03-14T02:46:10;5.30;;;4.70;;
57551;SDS011;43379;48.160;14.036;2023-03-14T02:51:10;4.83;;;4.43;;
57551;SDS011;43379;48.160;14.036;2023-03-14T02:53:36;4.33;;;3.83;;
57551;SDS011;43379;48.160;14.036;2023-03-14T02:56:03;5.87;;;3.83;;
57551;SDS011;43379;48.160;14.036;2023-03-14T02:58:30;4.33;;;3.90;;
57551;SDS011;43379;48.160;14.036;2023-03-14T03:00:56;4.73;;;4.33;;
57551;SDS011;43379;48.160;14.036;2023-03-14T03:03:22;5.00;;;4.50;;
57551;SDS011;43379;48.160;14.036;2023-03-14T03:05:51;4.10;;;3.80;;
57551;SDS011;43379;48.160;14.036;2023-03-14T03:08:18;4.37;;;3.97;;
57551;SDS011;43379;48.160;14.036;2023-03-14T03:10:45;4.33;;;3.93;;
57551;SDS011;43379;48.160;14.036;2023-03-14T03:13:11;4.23;;;3.83;;
57551;SDS011;43379;48.160;14.036;2023-03-14T03:15:37;7.63;;;3.90;;
57551;SDS011;43379;48.160;14.036;2023-03-14T03:18:02;5.40;;;5.00;;
57551;SDS011;43379;48.160;14.036;2023-03-14T03:20:28;3.87;;;3.57;;
57551;SDS011;43379;48.160;14.036;2023-03-14T03:22:54;4.57;;;4.17;;
57551;SDS011;43379;48.160;14.036;2023-03-14T03:25:20;5.30;;;4.80;;
57551;SDS011;43379;48.160;14.036;2023-03-14T03:27:45;4.30;;;4.00;;
57551;SDS011;43379;48.160;14.036;2023-03-14T03:30:11;4.30;;;4.00;;
57551;SDS011;43379;48.160;14.036;2023-03-14T03:32:37;4.57;;;4.17;;
57551;SDS011;43379;48.160;14.036;2023-03-14T03:35:03;5.60;;;4.37;;
57551;SDS011;43379;48.160;14.036;2023-03-14T03:37:30;4.17;;;3.83;;
57551;SDS011;43379;48.160;14.036;2023-03-14T03:39:57;3.60;;;3.27;;
57551;SDS011;43379;48.160;14.036;2023-03-14T03:42:22;4.50;;;4.10;;
57551;SDS011;43379;48.160;14.036;2023-03-14T03:44:48;5.93;;;5.33;;
57551;SDS011;43379;48.160;14.036;2023-03-14T03:47:14;6.67;;;5.70;;
57551;SDS011;43379;48.160;14.036;2023-03-14T03:49:40;5.33;;;4.73;;
57551;SDS011;43379;48.160;14.036;2023-03-14T03:52:06;4.00;;;3.70;;
57551;SDS011;43379;48.160;14.036;2023-03-14T03:54:32;3.80;;;3.50;;
57551;SDS011;43379;48.160;14.036;2023-03-14T03:56:57;4.17;;;3.30;;
57551;SDS011;43379;48.160;14.036;2023-03-14T03:59:23;2.87;;;2.67;;
57551;SDS011;43379;48.160;14.036;2023-03-14T04:01:49;2.87;;;2.60;;
57551;SDS011;43379;48.160;14.036;2023-03-14T04:04:14;3.20;;;2.90;;
57551;SDS011;43379;48.160;14.036;2023-03-14T04:06:40;5.17;;;4.27;;
57551;SDS011;43379;48.160;14.036;2023-03-14T04:09:07;3.60;;;3.30;;
57551;SDS011;43379;48.160;14.036;2023-03-14T04:11:33;4.20;;;3.40;;
57551;SDS011;43379;48.160;14.036;2023-03-14T04:13:59;5.17;;;3.90;;
57551;SDS011;43379;48.160;14.036;2023-03-14T04:16:25;4.30;;;3.63;;
57551;SDS011;43379;48.160;14.036;2023-03-14T04:18:51;3.83;;;3.43;;
57551;SDS011;43379;48.160;14.036;2023-03-14T04:21:17;4.70;;;3.13;;
57551;SDS011;43379;48.160;14.036;2023-03-14T04:23:43;6.93;;;3.30;;
57551;SDS011;43379;48.160;14.036;2023-03-14T04:26:09;5.03;;;3.07;;
57551;SDS011;43379;48.160;14.036;2023-03-14T04:28:35;3.30;;;3.10;;
57551;SDS011;43379;48.160;14.036;2023-03-14T04:31:12;3.50;;;3.20;;
57551;SDS011;43379;48.160;14.036;2023-03-14T04:33:39;4.30;;;2.60;;
57551;SDS011;43379;48.160;14.036;2023-03-14T04:36:06;2.03;;;1.93;;
57551;SDS011;43379;48.160;14.036;2023-03-14T04:38:32;1.67;;;1.47;;
57551;SDS011;43379;48.160;14.036;2023-03-14T04:40:58;1.50;;;1.40;;
57551;SDS011;43379;48.160;14.036;2023-03-14T04:43:24;2.47;;;1.27;;
57551;SDS011;43379;48.160;14.036;2023-03-14T04:45:51;1.60;;;1.50;;
57551;SDS011;43379;48.160;14.036;2023-03-14T04:48:18;1.50;;;1.40;;
57551;SDS011;43379;48.160;14.036;2023-03-14T04:50:43;2.00;;;1.43;;
57551;SDS011;43379;48.160;14.036;2023-03-14T04:53:11;1.33;;;1.23;;
57551;SDS011;43379;48.160;14.036;2023-03-14T04:55:37;2.13;;;1.20;;
57551;SDS011;43379;48.160;14.036;2023-03-14T04:58:03;1.20;;;1.10;;
57551;SDS011;43379;48.160;14.036;2023-03-14T05:00:28;1.03;;;0.93;;
57551;SDS011;43379;48.160;14.036;2023-03-14T05:02:54;1.20;;;1.10;;
57551;SDS011;43379;48.160;14.036;2023-03-14T05:05:20;1.57;;;1.17;;
57551;SDS011;43379;48.160;14.036;2023-03-14T05:07:46;1.27;;;1.00;;
57551;SDS011;43379;48.160;14.036;2023-03-14T05:10:12;1.13;;;1.03;;
57551;SDS011;43379;48.160;14.036;2023-03-14T05:12:38;1.80;;;0.93;;
57551;SDS011;43379;48.160;14.036;2023-03-14T05:15:03;1.00;;;0.90;;
57551;SDS011;43379;48.160;14.036;2023-03-14T05:17:30;1.80;;;1.70;;
57551;SDS011;43379;48.160;14.036;2023-03-14T05:19:57;2.40;;;2.10;;
57551;SDS011;43379;48.160;14.036;2023-03-14T05:22:23;3.10;;;2.03;;
57551;SDS011;43379;48.160;14.036;2023-03-14T05:24:48;2.07;;;1.77;;
57551;SDS011;43379;48.160;14.036;2023-03-14T05:27:14;2.10;;;1.40;;
57551;SDS011;43379;48.160;14.036;2023-03-14T05:29:39;1.50;;;1.40;;
57551;SDS011;43379;48.160;14.036;2023-03-14T05:32:05;1.60;;;1.50;;
57551;SDS011;43379;48.160;14.036;2023-03-14T05:34:31;3.07;;;1.33;;
57551;SDS011;43379;48.160;14.036;2023-03-14T05:36:57;1.87;;;1.03;;
57551;SDS011;43379;48.160;14.036;2023-03-14T05:39:22;1.43;;;1.33;;
57551;SDS011;43379;48.160;14.036;2023-03-14T05:41:48;1.77;;;1.47;;
57551;SDS011;43379;48.160;14.036;2023-03-14T05:44:14;2.23;;;2.03;;
57551;SDS011;43379;48.160;14.036;2023-03-14T05:46:40;1.80;;;1.70;;
57551;SDS011;43379;48.160;14.036;2023-03-14T05:49:06;2.17;;;1.57;;
57551;SDS011;43379;48.160;14.036;2023-03-14T05:51:31;2.03;;;1.30;;
57551;SDS011;43379;48.160;14.036;2023-03-14T05:53:57;1.90;;;1.80;;
57551;SDS011;43379;48.160;14.036;2023-03-14T05:56:23;2.07;;;1.80;;
57551;SDS011;43379;48.160;14.036;2023-03-14T05:58:48;2.20;;;2.00;;
57551;SDS011;43379;48.160;14.036;2023-03-14T06:01:14;2.90;;;1.70;;
57551;SDS011;43379;48.160;14.036;2023-03-14T06:03:39;3.83;;;2.27;;
57551;SDS011;43379;48.160;14.036;2023-03-14T06:06:05;2.03;;;1.43;;
57551;SDS011;43379;48.160;14.036;2023-03-14T06:08:31;1.50;;;1.40;;
57551;SDS011;43379;48.160;14.036;2023-03-14T06:10:57;1.70;;;1.50;;
57551;SDS011;43379;48.160;14.036;2023-03-14T06:13:23;2.13;;;1.77;;
57551;SDS011;43379;48.160;14.036;2023-03-14T06:15:49;1.67;;;1.57;;
57551;SDS011;43379;48.160;14.036;2023-03-14T06:18:14;1.50;;;1.40;;
57551;SDS011;43379;48.160;14.036;2023-03-14T06:20:40;1.50;;;1.40;;
57551;SDS011;43379;48.160;14.036;2023-03-14T06:23:06;1.90;;;1.77;;
57551;SDS011;43379;48.160;14.036;2023-03-14T06:25:33;2.40;;;1.93;;
57551;SDS011;43379;48.160;14.036;2023-03-14T06:27:59;2.00;;;1.40;;
57551;SDS011;43379;48.160;14.036;2023-03-14T06:30:25;2.30;;;1.60;;
57551;SDS011;43379;48.160;14.036;2023-03-14T06:32:51;1.90;;;1.50;;
57551;SDS011;43379;48.160;14.036;2023-03-14T06:35:16;1.50;;;1.40;;
57551;SDS011;43379;48.160;14.036;2023-03-14T06:37:42;2.77;;;1.60;;
57551;SDS011;43379;48.160;14.036;2023-03-14T06:40:11;1.73;;;1.30;;
57551;SDS011;43379;48.160;14.036;2023-03-14T06:42:41;2.43;;;1.50;;
57551;SDS011;43379;48.160;14.036;2023-03-14T06:45:08;2.50;;;1.50;;
57551;SDS011;43379;48.160;14.036;2023-03-14T06:47:34;1.40;;;1.30;;
57551;SDS011;43379;48.160;14.036;2023-03-14T06:50:00;2.23;;;1.70;;
57551;SDS011;43379;48.160;14.036;2023-03-14T06:52:25;1.80;;;1.67;;
57551;SDS011;43379;48.160;14.036;2023-03-14T06:54:51;2.37;;;2.17;;
57551;SDS011;43379;48.160;14.036;2023-03-14T06:57:17;2.27;;;2.07;;
57551;SDS011;43379;48.160;14.036;2023-03-14T06:59:42;3.50;;;2.10;;
57551;SDS011;43379;48.160;14.036;2023-03-14T07:02:10;3.43;;;3.13;;
57551;SDS011;43379;48.160;14.036;2023-03-14T07:04:37;3.53;;;2.37;;
57551;SDS011;43379;48.160;14.036;2023-03-14T07:07:03;4.50;;;3.87;;
57551;SDS011;43379;48.160;14.036;2023-03-14T07:09:29;5.00;;;4.50;;
57551;SDS011;43379;48.160;14.036;2023-03-14T07:11:55;2.60;;;2.40;;
57551;SDS011;43379;48.160;14.036;2023-03-14T07:14:22;2.10;;;1.80;;
57551;SDS011;43379;48.160;14.036;2023-03-14T07:16:47;2.00;;;1.80;;
57551;SDS011;43379;48.160;14.036;2023-03-14T07:19:13;2.00;;;1.80;;
57551;SDS011;43379;48.160;14.036;2023-03-14T07:21:38;1.90;;;1.50;;
57551;SDS011;43379;48.160;14.036;2023-03-14T07:24:04;1.50;;;1.40;;
57551;SDS011;43379;48.160;14.036;2023-03-14T07:26:30;1.93;;;1.83;;
57551;SDS011;43379;48.160;14.036;2023-03-14T07:28:56;2.90;;;2.03;;
57551;SDS011;43379;48.160;14.036;2023-03-14T07:31:22;2.73;;;1.63;;
57551;SDS011;43379;48.160;14.036;2023-03-14T07:33:47;1.50;;;1.40;;
57551;SDS011;43379;48.160;14.036;2023-03-14T07:36:13;1.87;;;1.77;;
57551;SDS011;43379;48.160;14.036;2023-03-14T07:38:39;2.80;;;2.27;;
57551;SDS011;43379;48.160;14.036;2023-03-14T07:41:05;2.90;;;2.03;;
57551;SDS011;43379;48.160;14.036;2023-03-14T07:43:31;2.80;;;2.60;;
57551;SDS011;43379;48.160;14.036;2023-03-14T07:45:57;2.57;;;1.77;;
57551;SDS011;43379;48.160;14.036;2023-03-14T07:48:23;2.50;;;2.00;;
57551;SDS011;43379;48.160;14.036;2023-03-14T07:50:53;2.13;;;1.70;;
57551;SDS011;43379;48.160;14.036;2023-03-14T07:53:20;3.13;;;1.80;;
57551;SDS011;43379;48.160;14.036;2023-03-14T07:55:46;2.40;;;1.40;;
57551;SDS011;43379;48.160;14.036;2023-03-14T07:58:12;3.63;;;1.47;;
57551;SDS011;43379;48.160;14.036;2023-03-14T08:00:39;1.53;;;1.33;;
57551;SDS011;43379;48.160;14.036;2023-03-14T08:03:05;2.07;;;1.30;;
57551;SDS011;43379;48.160;14.036;2023-03-14T08:05:33;1.40;;;1.20;;
57551;SDS011;43379;48.160;14.036;2023-03-14T08:08:00;2.13;;;1.60;;
57551;SDS011;43379;48.160;14.036;2023-03-14T08:10:26;1.60;;;1.50;;
57551;SDS011;43379;48.160;14.036;2023-03-14T08:12:53;2.83;;;2.53;;
57551;SDS011;43379;48.160;14.036;2023-03-14T08:15:21;2.73;;;2.27;;
57551;SDS011;43379;48.160;14.036;2023-03-14T08:17:47;2.60;;;2.27;;
57551;SDS011;43379;48.160;14.036;2023-03-14T08:20:16;3.47;;;2.80;;
57551;SDS011;43379;48.160;14.036;2023-03-14T08:22:43;2.17;;;1.97;;
57551;SDS011;43379;48.160;14.036;2023-03-14T08:25:09;2.33;;;1.57;;
57551;SDS011;43379;48.160;14.036;2023-03-14T08:27:35;1.63;;;1.53;;
57551;SDS011;43379;48.160;14.036;2023-03-14T08:30:03;1.33;;;1.23;;
57551;SDS011;43379;48.160;14.036;2023-03-14T08:32:34;4.20;;;2.10;;
57551;SDS011;43379;48.160;14.036;2023-03-14T08:34:59;2.27;;;2.07;;
57551;SDS011;43379;48.160;14.036;2023-03-14T08:37:25;1.87;;;1.53;;
57551;SDS011;43379;48.160;14.036;2023-03-14T08:39:51;1.50;;;1.00;;
57551;SDS011;43379;48.160;14.036;2023-03-14T08:42:17;1.80;;;1.33;;
57551;SDS011;43379;48.160;14.036;2023-03-14T08:44:43;3.40;;;1.70;;
57551;SDS011;43379;48.160;14.036;2023-03-14T08:47:09;2.80;;;1.77;;
57551;SDS011;43379;48.160;14.036;2023-03-14T08:49:34;1.73;;;1.60;;
57551;SDS011;43379;48.160;14.036;2023-03-14T08:52:03;1.67;;;1.37;;
57551;SDS011;43379;48.160;14.036;2023-03-14T08:54:29;1.93;;;1.53;;
57551;SDS011;43379;48.160;14.036;2023-03-14T08:56:55;2.83;;;1.70;;
57551;SDS011;43379;48.160;14.036;2023-03-14T08:59:21;1.60;;;1.10;;
57551;SDS011;43379;48.160;14.036;2023-03-14T09:01:47;1.60;;;1.10;;
57551;SDS011;43379;48.160;14.036;2023-03-14T09:04:13;2.13;;;1.10;;
57551;SDS011;43379;48.160;14.036;2023-03-14T09:06:39;2.80;;;0.80;;
57551;SDS011;43379;48.160;14.036;2023-03-14T09:09:05;1.90;;;1.17;;
57551;SDS011;43379;48.160;14.036;2023-03-14T09:11:31;2.70;;;1.37;;
57551;SDS011;43379;48.160;14.036;2023-03-14T09:13:57;1.80;;;1.00;;
57551;SDS011;43379;48.160;14.036;2023-03-14T09:16:23;1.30;;;1.20;;
57551;SDS011;43379;48.160;14.036;2023-03-14T09:18:49;2.17;;;1.30;;
57551;SDS011;43379;48.160;14.036;2023-03-14T09:21:14;2.80;;;1.43;;
57551;SDS011;43379;48.160;14.036;2023-03-14T09:23:40;1.77;;;1.30;;
57551;SDS011;43379;48.160;14.036;2023-03-14T09:26:06;1.30;;;1.00;;
57551;SDS011;43379;48.160;14.036;2023-03-14T09:28:32;1.20;;;1.07;;
57551;SDS011;43379;48.160;14.036;2023-03-14T09:31:04;1.70;;;1.40;;
57551;SDS011;43379;48.160;14.036;2023-03-14T09:33:31;2.63;;;1.23;;
57551;SDS011;43379;48.160;14.036;2023-03-14T09:35:59;2.80;;;1.37;;
57551;SDS011;43379;48.160;14.036;2023-03-14T09:38:25;1.00;;;0.90;;
57551;SDS011;43379;48.160;14.036;2023-03-14T09:40:51;2.03;;;1.07;;
57551;SDS011;43379;48.160;14.036;2023-03-14T09:43:18;1.27;;;0.97;;
57551;SDS011;43379;48.160;14.036;2023-03-14T09:45:46;2.23;;;1.13;;
57551;SDS011;43379;48.160;14.036;2023-03-14T09:48:19;1.13;;;1.03;;
57551;SDS011;43379;48.160;14.036;2023-03-14T09:50:51;1.57;;;1.17;;
57551;SDS011;43379;48.160;14.036;2023-03-14T09:53:26;1.77;;;1.20;;
57551;SDS011;43379;48.160;14.036;2023-03-14T09:56:04;1.30;;;1.20;;
57551;SDS011;43379;48.160;14.036;2023-03-14T09:58:35;2.13;;;1.23;;
57551;SDS011;43379;48.160;14.036;2023-03-14T10:01:03;1.67;;;1.27;;
57551;SDS011;43379;48.160;14.036;2023-03-14T10:03:31;1.53;;;1.23;;
57551;SDS011;43379;48.160;14.036;2023-03-14T10:05:57;1.57;;;1.20;;
57551;SDS011;43379;48.160;14.036;2023-03-14T10:08:24;1.87;;;1.30;;
57551;SDS011;43379;48.160;14.036;2023-03-14T10:10:50;2.67;;;1.07;;
57551;SDS011;43379;48.160;14.036;2023-03-14T10:13:25;1.57;;;1.40;;
57551;SDS011;43379;48.160;14.036;2023-03-14T10:15:59;2.20;;;1.67;;
57551;SDS011;43379;48.160;14.036;2023-03-14T10:18:28;1.60;;;1.40;;
57551;SDS011;43379;48.160;14.036;2023-03-14T10:21:05;2.60;;;1.63;;
57551;SDS011;43379;48.160;14.036;2023-03-14T10:23:41;1.40;;;1.30;;
57551;SDS011;43379;48.160;14.036;2023-03-14T10:26:18;2.20;;;1.40;;
57551;SDS011;43379;48.160;14.036;2023-03-14T10:28:53;1.60;;;1.50;;
57551;SDS011;43379;48.160;14.036;2023-03-14T10:31:27;1.40;;;1.30;;
57551;SDS011;43379;48.160;14.036;2023-03-14T10:34:00;5.60;;;1.40;;
57551;SDS011;43379;48.160;14.036;2023-03-14T10:36:30;1.53;;;1.20;;
57551;SDS011;43379;48.160;14.036;2023-03-14T10:39:14;1.13;;;1.03;;
57551;SDS011;43379;48.160;14.036;2023-03-14T10:42:01;2.00;;;1.07;;
57551;SDS011;43379;48.160;14.036;2023-03-14T10:44:29;2.43;;;1.40;;
57551;SDS011;43379;48.160;14.036;2023-03-14T10:46:56;1.83;;;1.23;;
57551;SDS011;43379;48.160;14.036;2023-03-14T10:49:32;3.27;;;2.63;;
57551;SDS011;43379;48.160;14.036;2023-03-14T10:52:13;1.40;;;1.30;;
57551;SDS011;43379;48.160;14.036;2023-03-14T10:54:46;3.50;;;1.10;;
57551;SDS011;43379;48.160;14.036;2023-03-14T10:57:13;3.33;;;1.50;;
57551;SDS011;43379;48.160;14.036;2023-03-14T10:59:39;1.57;;;1.40;;
57551;SDS011;43379;48.160;14.036;2023-03-14T11:04:44;3.10;;;1.20;;
57551;SDS011;43379;48.160;14.036;2023-03-14T11:07:27;1.30;;;1.20;;
57551;SDS011;43379;48.160;14.036;2023-03-14T11:13:03;1.00;;;0.90;;
57551;SDS011;43379;48.160;14.036;2023-03-14T11:16:04;2.17;;;1.27;;
57551;SDS011;43379;48.160;14.036;2023-03-14T11:26:48;1.60;;;1.50;;
57551;SDS011;43379;48.160;14.036;2023-03-14T11:29:20;1.33;;;1.23;;
57551;SDS011;43379;48.160;14.036;2023-03-14T11:32:11;0.83;;;0.80;;
57551;SDS011;43379;48.160;14.036;2023-03-14T11:37:17;1.67;;;1.00;;
57551;SDS011;43379;48.160;14.036;2023-03-14T11:39:46;1.13;;;1.03;;
57551;SDS011;43379;48.160;14.036;2023-03-14T11:42:19;1.10;;;1.00;;
57551;SDS011;43379;48.160;14.036;2023-03-14T11:44:48;1.37;;;1.27;;
57551;SDS011;43379;48.160;14.036;2023-03-14T11:50:24;1.40;;;1.30;;
57551;SDS011;43379;48.160;14.036;2023-03-14T11:53:39;1.53;;;1.43;;
57551;SDS011;43379;48.160;14.036;2023-03-14T11:55:53;1.57;;;1.43;;
57551;SDS011;43379;48.160;14.036;2023-03-14T11:58:20;3.27;;;2.30;;
57551;SDS011;43379;48.160;14.036;2023-03-14T12:00:51;2.40;;;2.00;;
57551;SDS011;43379;48.160;14.036;2023-03-14T12:08:47;1.30;;;1.20;;
57551;SDS011;43379;48.160;14.036;2023-03-14T12:11:33;1.20;;;1.10;;
57551;SDS011;43379;48.160;14.036;2023-03-14T12:14:17;1.10;;;1.00;;
57551;SDS011;43379;48.160;14.036;2023-03-14T12:16:58;0.90;;;0.80;;
57551;SDS011;43379;48.160;14.036;2023-03-14T12:19:32;1.20;;;1.10;;
57551;SDS011;43379;48.160;14.036;2023-03-14T12:22:07;1.03;;;0.80;;
57551;SDS011;43379;48.160;14.036;2023-03-14T12:24:48;0.90;;;0.70;;
57551;SDS011;43379;48.160;14.036;2023-03-14T12:30:21;0.90;;;0.90;;
57551;SDS011;43379;48.160;14.036;2023-03-14T12:35:38;1.30;;;0.80;;
57551;SDS011;43379;48.160;14.036;2023-03-14T12:38:16;0.80;;;0.63;;
57551;SDS011;43379;48.160;14.036;2023-03-14T12:43:27;1.23;;;0.77;;
57551;SDS011;43379;48.160;14.036;2023-03-14T12:46:07;0.83;;;0.70;;
57551;SDS011;43379;48.160;14.036;2023-03-14T12:48:41;0.80;;;0.60;;
57551;SDS011;43379;48.160;14.036;2023-03-14T12:51:12;1.07;;;0.80;;
57551;SDS011;43379;48.160;14.036;2023-03-14T12:59:34;1.10;;;0.60;;
57551;SDS011;43379;48.160;14.036;2023-03-14T13:02:10;1.20;;;0.87;;
57551;SDS011;43379;48.160;14.036;2023-03-14T13:04:46;1.47;;;0.60;;
57551;SDS011;43379;48.160;14.036;2023-03-14T13:12:38;0.80;;;0.80;;
57551;SDS011;43379;48.160;14.036;2023-03-14T13:15:15;1.40;;;0.87;;
57551;SDS011;43379;48.160;14.036;2023-03-14T13:17:53;1.20;;;0.70;;
57551;SDS011;43379;48.160;14.036;2023-03-14T13:23:35;2.80;;;1.10;;
57551;SDS011;43379;48.160;14.036;2023-03-14T13:26:03;0.90;;;0.80;;
57551;SDS011;43379;48.160;14.036;2023-03-14T13:28:36;1.90;;;0.80;;
57551;SDS011;43379;48.160;14.036;2023-03-14T13:31:02;1.00;;;0.90;;
57551;SDS011;43379;48.160;14.036;2023-03-14T13:33:29;1.57;;;0.90;;
57551;SDS011;43379;48.160;14.036;2023-03-14T13:35:56;0.90;;;0.70;;
57551;SDS011;43379;48.160;14.036;2023-03-14T13:38:27;0.80;;;0.80;;
57551;SDS011;43379;48.160;14.036;2023-03-14T13:40:55;0.97;;;0.87;;
57551;SDS011;43379;48.160;14.036;2023-03-14T13:43:31;1.27;;;0.80;;
57551;SDS011;43379;48.160;14.036;2023-03-14T13:46:04;1.10;;;0.87;;
57551;SDS011;43379;48.160;14.036;2023-03-14T13:48:33;0.83;;;0.80;;
57551;SDS011;43379;48.160;14.036;2023-03-14T13:51:02;0.77;;;0.60;;
57551;SDS011;43379;48.160;14.036;2023-03-14T13:53:42;1.33;;;0.80;;
57551;SDS011;43379;48.160;14.036;2023-03-14T13:56:14;1.47;;;1.20;;
57551;SDS011;43379;48.160;14.036;2023-03-14T13:58:40;3.17;;;1.20;;
57551;SDS011;43379;48.160;14.036;2023-03-14T14:03:48;1.00;;;0.90;;
57551;SDS011;43379;48.160;14.036;2023-03-14T14:06:32;1.00;;;0.90;;
57551;SDS011;43379;48.160;14.036;2023-03-14T14:11:53;1.40;;;1.13;;
57551;SDS011;43379;48.160;14.036;2023-03-14T14:14:22;1.30;;;1.03;;
57551;SDS011;43379;48.160;14.036;2023-03-14T14:16:54;1.70;;;1.40;;
57551;SDS011;43379;48.160;14.036;2023-03-14T14:19:21;1.00;;;0.90;;
57551;SDS011;43379;48.160;14.036;2023-03-14T14:21:48;1.17;;;0.93;;
57551;SDS011;43379;48.160;14.036;2023-03-14T14:24:15;1.30;;;1.20;;
57551;SDS011;43379;48.160;14.036;2023-03-14T14:26:51;1.00;;;0.90;;
57551;SDS011;43379;48.160;14.036;2023-03-14T14:29:28;1.77;;;0.87;;
57551;SDS011;43379;48.160;14.036;2023-03-14T14:32:03;0.67;;;0.60;;
57551;SDS011;43379;48.160;14.036;2023-03-14T14:34:42;0.80;;;0.80;;
57551;SDS011;43379;48.160;14.036;2023-03-14T14:37:34;1.63;;;1.00;;
57551;SDS011;43379;48.160;14.036;2023-03-14T14:40:08;1.17;;;0.80;;
57551;SDS011;43379;48.160;14.036;2023-03-14T14:42:41;0.83;;;0.80;;
57551;SDS011;43379;48.160;14.036;2023-03-14T14:45:09;1.00;;;0.90;;
57551;SDS011;43379;48.160;14.036;2023-03-14T14:47:55;1.13;;;1.03;;
57551;SDS011;43379;48.160;14.036;2023-03-14T14:53:01;0.80;;;0.80;;
57551;SDS011;43379;48.160;14.036;2023-03-14T14:55:32;1.43;;;1.17;;
57551;SDS011;43379;48.160;14.036;2023-03-14T15:00:49;0.93;;;0.83;;
57551;SDS011;43379;48.160;14.036;2023-03-14T15:03:18;1.13;;;1.03;;
57551;SDS011;43379;48.160;14.036;2023-03-14T15:05:44;2.50;;;1.63;;
57551;SDS011;43379;48.160;14.036;2023-03-14T15:08:10;1.40;;;1.30;;
57551;SDS011;43379;48.160;14.036;2023-03-14T15:10:37;1.90;;;1.10;;
57551;SDS011;43379;48.160;14.036;2023-03-14T15:13:02;1.30;;;1.20;;
57551;SDS011;43379;48.160;14.036;2023-03-14T15:15:28;2.10;;;1.40;;
57551;SDS011;43379;48.160;14.036;2023-03-14T15:17:54;1.70;;;1.60;;
57551;SDS011;43379;48.160;14.036;2023-03-14T15:20:20;1.73;;;1.63;;
57551;SDS011;43379;48.160;14.036;2023-03-14T15:22:48;2.20;;;1.30;;
57551;SDS011;43379;48.160;14.036;2023-03-14T15:25:15;1.53;;;1.43;;
57551;SDS011;43379;48.160;14.036;2023-03-14T15:27:41;1.50;;;1.10;;
57551;SDS011;43379;48.160;14.036;2023-03-14T15:30:16;2.50;;;1.50;;
57551;SDS011;43379;48.160;14.036;2023-03-14T15:32:43;2.03;;;1.47;;
57551;SDS011;43379;48.160;14.036;2023-03-14T15:35:09;3.50;;;1.37;;
57551;SDS011;43379;48.160;14.036;2023-03-14T15:37:35;1.20;;;1.10;;
57551;SDS011;43379;48.160;14.036;2023-03-14T15:40:01;1.30;;;1.20;;
57551;SDS011;43379;48.160;14.036;2023-03-14T15:42:35;1.90;;;1.70;;
57551;SDS011;43379;48.160;14.036;2023-03-14T15:45:00;3.53;;;2.83;;
57551;SDS011;43379;48.160;14.036;2023-03-14T15:47:26;3.70;;;2.30;;